createdAt,value
2019-03-28T00:01:25.904Z,70.50
2019-03-28T00:03:56.897Z,70.50
2019-03-28T00:06:27.939Z,70.70
2019-03-28T00:08:59.298Z,70.80
2019-03-28T00:11:30.306Z,71.00
2019-03-28T00:14:01.350Z,71.00
2019-03-28T00:16:32.458Z,71.10
2019-03-28T00:19:03.459Z,71.20
2019-03-28T00:21:34.501Z,71.20
2019-03-28T00:24:13.608Z,71.20
2019-03-28T00:26:44.713Z,71.50
2019-03-28T00:29:15.737Z,71.70
2019-03-28T00:31:48.023Z,71.80
2019-03-28T00:34:19.306Z,72.00
2019-03-28T00:36:50.304Z,72.30
2019-03-28T00:39:21.377Z,72.80
2019-03-28T00:41:52.390Z,73.10
2019-03-28T00:44:23.777Z,73.10
2019-03-28T00:46:54.804Z,73.10
2019-03-28T00:49:25.797Z,73.10
2019-03-28T00:51:56.992Z,73.00
2019-03-28T00:54:28.026Z,73.10
2019-03-28T00:56:59.722Z,73.20
2019-03-28T00:59:31.446Z,74.40
2019-03-28T01:02:02.867Z,73.50
2019-03-28T01:04:33.870Z,73.80
2019-03-28T01:07:04.893Z,74.00
2019-03-28T01:09:35.893Z,74.00
2019-03-28T01:12:07.192Z,74.00
2019-03-28T01:14:38.204Z,74.00
2019-03-28T01:17:10.284Z,73.80
2019-03-28T01:19:42.332Z,73.90
2019-03-28T01:22:13.405Z,73.80
2019-03-28T01:24:44.720Z,73.80
2019-03-28T01:27:15.744Z,73.90
2019-03-28T01:29:46.752Z,74.10
2019-03-28T01:32:17.805Z,74.20
2019-03-28T01:34:48.817Z,74.20
2019-03-28T01:37:19.817Z,74.30
2019-03-28T01:39:50.829Z,75.20
2019-03-28T01:42:21.869Z,75.10
2019-03-28T01:44:52.981Z,75.40
2019-03-28T01:47:24.187Z,75.80
2019-03-28T01:49:55.192Z,75.80
2019-03-28T01:52:26.558Z,75.80
2019-03-28T01:54:57.524Z,75.60
2019-03-28T01:57:28.536Z,75.70
2019-03-28T01:59:59.553Z,76.20
2019-03-28T02:02:30.697Z,76.20
2019-03-28T02:05:02.501Z,75.80
2019-03-28T02:07:33.497Z,75.80
2019-03-28T02:10:04.877Z,75.80
2019-03-28T02:12:36.259Z,75.60
2019-03-28T02:15:08.882Z,75.90
2019-03-28T02:17:39.895Z,76.20
2019-03-28T02:20:11.333Z,76.10
2019-03-28T02:22:42.360Z,76.80
2019-03-28T02:25:13.401Z,76.20
2019-03-28T02:27:44.463Z,76.50
2019-03-28T02:30:16.950Z,76.70
2019-03-28T02:32:47.988Z,76.60
2019-03-28T02:35:19.002Z,76.50
2019-03-28T02:37:50.028Z,76.60
2019-03-28T02:40:21.201Z,77.00
2019-03-28T02:42:53.401Z,77.10
2019-03-28T02:45:24.580Z,77.00
2019-03-28T02:47:55.817Z,77.00
2019-03-28T02:50:26.898Z,77.00
2019-03-28T02:52:57.920Z,77.00
2019-03-28T02:55:28.950Z,76.90
2019-03-28T02:57:59.971Z,76.80
2019-03-28T03:00:31.124Z,76.80
2019-03-28T03:03:02.199Z,77.10
2019-03-28T03:05:33.238Z,77.10
2019-03-28T03:08:04.582Z,77.40
2019-03-28T03:10:36.111Z,77.30
2019-03-28T03:13:07.219Z,77.40
2019-03-28T03:15:38.208Z,77.60
2019-03-28T03:18:10.525Z,77.60
2019-03-28T03:20:41.537Z,77.60
2019-03-28T03:23:12.533Z,77.50
2019-03-28T03:25:43.556Z,77.60
2019-03-28T03:28:14.629Z,77.80
2019-03-28T03:30:45.625Z,77.90
2019-03-28T03:33:16.962Z,78.20
2019-03-28T03:35:48.345Z,78.10
2019-03-28T03:38:19.377Z,78.20
2019-03-28T03:41:01.389Z,78.20
2019-03-28T03:43:33.364Z,78.30
2019-03-28T03:46:04.357Z,78.50
2019-03-28T03:48:35.378Z,78.70
2019-03-28T03:51:06.388Z,78.60
2019-03-28T03:53:37.869Z,78.70
2019-03-28T03:56:08.890Z,78.80
2019-03-28T03:58:40.052Z,78.80
2019-03-28T04:01:11.307Z,78.90
2019-03-28T04:03:42.288Z,78.90
2019-03-28T04:06:13.329Z,78.80
2019-03-28T04:08:44.515Z,79.00
2019-03-28T04:11:15.602Z,79.20
2019-03-28T04:13:46.678Z,79.10
2019-03-28T04:16:17.682Z,80.20
2019-03-28T04:18:48.727Z,79.40
2019-03-28T04:21:20.040Z,79.50
2019-03-28T04:23:51.068Z,80.50
2019-03-28T04:26:22.220Z,80.10
2019-03-28T04:28:53.617Z,80.00
2019-03-28T04:31:25.101Z,80.10
2019-03-28T04:33:56.141Z,80.00
2019-03-28T04:36:27.223Z,80.20
2019-03-28T04:38:58.358Z,80.10
2019-03-28T04:41:29.497Z,80.10
2019-03-28T04:44:01.599Z,80.10
2019-03-28T04:46:32.605Z,80.40
2019-03-28T04:49:04.039Z,80.40
2019-03-28T04:51:35.109Z,80.30
2019-03-28T04:54:06.235Z,80.30
2019-03-28T04:56:37.753Z,80.50
2019-03-28T04:59:09.245Z,80.40
2019-03-28T05:01:40.260Z,80.50
2019-03-28T05:04:11.349Z,80.60
2019-03-28T05:06:42.515Z,80.70
2019-03-28T05:09:13.938Z,80.60
2019-03-28T05:11:44.957Z,81.30
2019-03-28T05:14:15.971Z,80.40
2019-03-28T05:16:47.017Z,80.70
2019-03-28T05:19:18.025Z,80.70
2019-03-28T05:21:49.420Z,80.70
2019-03-28T05:24:20.114Z,80.90
2019-03-28T05:26:49.704Z,81.00
2019-03-28T05:29:19.257Z,81.30
2019-03-28T05:31:48.790Z,81.10
2019-03-28T05:34:18.589Z,81.20
2019-03-28T05:36:48.109Z,81.00
2019-03-28T05:39:17.628Z,81.20
2019-03-28T05:41:47.149Z,81.10
2019-03-28T05:44:16.680Z,81.40
2019-03-28T05:46:46.220Z,81.30
2019-03-28T05:49:15.737Z,81.20
2019-03-28T05:51:45.260Z,81.40
2019-03-28T05:54:14.775Z,82.20
2019-03-28T05:56:44.851Z,81.90
2019-03-28T05:59:14.469Z,81.90
2019-03-28T06:01:44.056Z,82.20
2019-03-28T06:04:13.870Z,81.80
2019-03-28T06:06:44.246Z,82.20
2019-03-28T06:09:13.948Z,82.80
2019-03-28T06:11:43.464Z,82.40
2019-03-28T06:14:13.420Z,82.00
2019-03-28T06:16:42.956Z,83.10
2019-03-28T06:19:12.634Z,83.10
2019-03-28T06:21:43.118Z,83.30
2019-03-28T06:24:12.650Z,82.90
2019-03-28T06:26:42.153Z,82.50
2019-03-28T06:29:23.131Z,82.50
2019-03-28T06:31:54.568Z,83.10
2019-03-28T06:34:14.249Z,82.60
2019-03-28T06:36:44.233Z,83.20
2019-03-28T06:39:13.740Z,82.70
2019-03-28T06:41:44.442Z,82.50
2019-03-28T06:44:14.143Z,82.40
2019-03-28T06:46:43.707Z,81.80
2019-03-28T06:49:13.350Z,82.10
2019-03-28T06:51:43.828Z,81.40
2019-03-28T06:54:13.380Z,81.10
2019-03-28T06:56:53.955Z,80.90
2019-03-28T06:59:36.847Z,81.50
2019-03-28T07:01:56.372Z,80.90
2019-03-28T07:04:25.913Z,81.30
2019-03-28T07:06:56.749Z,80.50
2019-03-28T07:09:27.789Z,80.20
2019-03-28T07:11:59.041Z,80.30
2019-03-28T07:14:30.196Z,80.20
2019-03-28T07:17:01.242Z,79.60
2019-03-28T07:19:33.492Z,79.20
2019-03-28T07:22:04.505Z,79.10
2019-03-28T07:24:35.545Z,78.60
2019-03-28T07:27:06.729Z,78.50
2019-03-28T07:29:50.341Z,78.10
2019-03-28T07:32:11.179Z,77.80
2019-03-28T07:34:43.742Z,77.50
2019-03-28T07:37:14.901Z,77.30
2019-03-28T07:39:46.033Z,77.00
2019-03-28T07:42:17.083Z,77.60
2019-03-28T07:44:55.704Z,76.90
2019-03-28T07:47:31.544Z,76.80
2019-03-28T07:50:02.602Z,76.60
2019-03-28T07:52:33.698Z,76.40
2019-03-28T07:55:05.631Z,75.80
2019-03-28T07:57:36.900Z,75.10
2019-03-28T08:00:09.406Z,75.00
2019-03-28T08:02:40.646Z,74.70
2019-03-28T08:05:12.128Z,74.80
2019-03-28T08:07:45.366Z,74.70
2019-03-28T08:10:17.277Z,74.30
2019-03-28T08:12:48.414Z,73.80
2019-03-28T08:15:19.742Z,73.80
2019-03-28T08:17:50.823Z,73.70
2019-03-28T08:20:22.160Z,73.40
2019-03-28T08:22:53.191Z,72.90
2019-03-28T08:25:24.226Z,72.30
2019-03-28T08:27:57.637Z,72.20
2019-03-28T08:30:36.211Z,72.20
2019-03-28T08:33:07.601Z,71.40
2019-03-28T08:35:38.759Z,70.50
2019-03-28T08:38:10.444Z,69.40
2019-03-28T08:40:43.262Z,70.00
2019-03-28T08:43:14.915Z,70.50
2019-03-28T08:45:46.075Z,69.70
2019-03-28T08:48:17.165Z,69.10
2019-03-28T08:50:48.230Z,69.00
2019-03-28T08:53:19.261Z,68.40
2019-03-28T08:55:50.310Z,68.00
2019-03-28T08:58:21.363Z,67.10
2019-03-28T09:00:53.144Z,67.10
2019-03-28T09:03:24.293Z,66.10
2019-03-28T09:05:55.290Z,65.00
2019-03-28T09:08:26.319Z,64.90
2019-03-28T09:10:57.346Z,64.60
2019-03-28T09:13:28.446Z,63.80
2019-03-28T09:15:59.621Z,64.30
2019-03-28T09:18:32.187Z,63.20
2019-03-28T09:21:04.261Z,63.20
2019-03-28T09:23:35.391Z,61.80
2019-03-28T09:26:06.501Z,61.70
2019-03-28T09:28:37.494Z,62.10
2019-03-28T09:31:19.269Z,62.00
2019-03-28T09:33:41.859Z,59.70
2019-03-28T09:36:12.897Z,58.70
2019-03-28T09:38:43.969Z,60.30
2019-03-28T09:41:15.160Z,58.00
2019-03-28T09:43:55.394Z,57.40
2019-03-28T09:46:18.893Z,57.90
2019-03-28T09:48:50.225Z,57.90
2019-03-28T09:51:21.259Z,56.60
2019-03-28T09:53:52.265Z,55.70
2019-03-28T09:56:23.276Z,53.70
2019-03-28T09:58:54.335Z,53.50
2019-03-28T10:01:25.399Z,54.00
2019-03-28T10:03:56.804Z,53.80
2019-03-28T10:06:27.860Z,52.90
2019-03-28T10:08:58.873Z,52.20
2019-03-28T10:11:29.853Z,52.10
2019-03-28T10:14:00.908Z,52.70
2019-03-28T10:16:31.906Z,52.00
2019-03-28T10:19:02.929Z,51.00
2019-03-28T10:21:37.284Z,49.10
2019-03-28T10:24:06.777Z,48.90
2019-03-28T10:26:37.845Z,47.90
2019-03-28T10:29:09.532Z,46.90
2019-03-28T10:31:41.339Z,48.10
2019-03-28T10:34:12.921Z,46.90
2019-03-28T10:36:43.920Z,44.20
2019-03-28T10:39:15.060Z,44.20
2019-03-28T10:41:46.086Z,41.70
2019-03-28T10:44:17.469Z,43.30
2019-03-28T10:46:48.541Z,43.80
2019-03-28T10:49:19.663Z,41.20
2019-03-28T10:51:50.698Z,40.70
2019-03-28T10:54:25.507Z,39.90
2019-03-28T10:56:57.887Z,39.90
2019-03-28T10:59:27.716Z,39.60
2019-03-28T11:01:58.716Z,38.10
2019-03-28T11:04:29.891Z,37.70
2019-03-28T11:07:00.979Z,38.30
2019-03-28T11:09:32.052Z,38.10
2019-03-28T11:12:03.085Z,37.50
2019-03-28T11:14:34.160Z,38.20
2019-03-28T11:17:05.203Z,38.30
2019-03-28T11:19:36.555Z,36.30
2019-03-28T11:22:07.598Z,36.40
2019-03-28T11:24:39.035Z,36.00
2019-03-28T11:27:10.477Z,34.60
2019-03-28T11:29:41.593Z,34.80
2019-03-28T11:32:12.977Z,36.50
2019-03-28T11:34:44.208Z,34.30
2019-03-28T11:37:25.867Z,32.90
2019-03-28T11:39:48.317Z,35.90
2019-03-28T11:42:19.411Z,34.10
2019-03-28T11:44:50.598Z,34.10
2019-03-28T11:47:22.406Z,33.30
2019-03-28T11:49:53.959Z,32.90
2019-03-28T11:52:25.760Z,30.50
2019-03-28T11:54:57.895Z,31.40
2019-03-28T11:57:29.703Z,31.70
2019-03-28T12:00:01.481Z,31.90
2019-03-28T12:02:34.179Z,31.60
2019-03-28T12:05:06.041Z,30.80
2019-03-28T12:07:37.786Z,29.80
2019-03-28T12:10:11.027Z,29.80
2019-03-28T12:12:43.032Z,29.10
2019-03-28T12:15:15.945Z,29.10
2019-03-28T12:17:47.324Z,29.50
2019-03-28T12:20:18.718Z,29.20
2019-03-28T12:22:49.740Z,28.90
2019-03-28T12:25:21.942Z,28.30
2019-03-28T12:27:53.363Z,28.30
2019-03-28T12:30:24.569Z,28.70
2019-03-28T12:32:55.589Z,28.40
2019-03-28T12:35:26.797Z,28.50
2019-03-28T12:37:58.159Z,28.80
2019-03-28T12:40:29.244Z,28.40
2019-03-28T12:43:00.657Z,27.40
2019-03-28T12:45:32.054Z,27.00
2019-03-28T12:48:03.441Z,27.90
2019-03-28T12:50:34.496Z,27.40
2019-03-28T12:53:05.518Z,26.20
2019-03-28T12:55:36.592Z,26.90
2019-03-28T12:58:07.642Z,26.00
2019-03-28T13:00:39.140Z,25.70
2019-03-28T13:03:10.607Z,27.20
2019-03-28T13:05:41.658Z,27.00
2019-03-28T13:08:12.751Z,26.20
2019-03-28T13:10:43.771Z,26.60
2019-03-28T13:13:14.854Z,26.50
2019-03-28T13:15:47.003Z,26.90
2019-03-28T13:18:18.161Z,27.30
2019-03-28T13:20:49.214Z,26.40
2019-03-28T13:23:20.271Z,26.60
2019-03-28T13:25:51.614Z,25.90
2019-03-28T13:28:22.715Z,25.70
2019-03-28T13:30:53.748Z,25.50
2019-03-28T13:33:24.784Z,26.80
2019-03-28T13:35:57.039Z,26.20
2019-03-28T13:38:28.367Z,26.40
2019-03-28T13:40:59.413Z,26.00
2019-03-28T13:43:30.805Z,25.20
2019-03-28T13:46:02.210Z,24.90
2019-03-28T13:48:34.886Z,25.20
2019-03-28T13:51:06.019Z,24.90
2019-03-28T13:53:39.667Z,24.60
2019-03-28T13:56:09.745Z,25.10
2019-03-28T13:58:40.835Z,24.70
2019-03-28T14:01:11.981Z,24.50
2019-03-28T14:03:43.117Z,24.90
2019-03-28T14:06:14.250Z,24.60
2019-03-28T14:08:45.290Z,24.40
2019-03-28T14:11:16.418Z,24.60
2019-03-28T14:13:47.641Z,23.90
2019-03-28T14:16:20.069Z,23.90
2019-03-28T14:18:51.088Z,23.80
2019-03-28T14:21:22.515Z,23.70
2019-03-28T14:23:53.911Z,24.50
2019-03-28T14:26:24.971Z,24.50
2019-03-28T14:28:56.065Z,25.40
2019-03-28T14:31:27.109Z,25.60
2019-03-28T14:33:58.668Z,26.00
2019-03-28T14:36:29.758Z,26.40
2019-03-28T14:39:00.785Z,25.30
2019-03-28T14:41:33.542Z,25.10
2019-03-28T14:44:04.602Z,24.90
2019-03-28T14:46:37.243Z,25.10
2019-03-28T14:49:08.287Z,24.70
2019-03-28T14:51:39.722Z,24.30
2019-03-28T14:54:10.916Z,24.80
2019-03-28T14:56:42.464Z,24.00
2019-03-28T14:59:14.458Z,24.00
2019-03-28T15:01:45.464Z,24.40
2019-03-28T15:04:16.534Z,25.10
2019-03-28T15:06:47.636Z,24.90
2019-03-28T15:09:19.153Z,25.50
2019-03-28T15:11:50.599Z,24.80
2019-03-28T15:14:21.772Z,25.80
2019-03-28T15:16:52.981Z,26.40
2019-03-28T15:19:24.075Z,26.70
2019-03-28T15:21:55.206Z,27.80
2019-03-28T15:24:26.723Z,28.90
2019-03-28T15:26:58.107Z,29.50
2019-03-28T15:29:29.438Z,29.60
2019-03-28T15:32:00.539Z,29.90
2019-03-28T15:34:31.963Z,31.40
2019-03-28T15:37:02.984Z,32.40
2019-03-28T15:39:34.018Z,32.90
2019-03-28T15:42:05.110Z,33.00
2019-03-28T15:44:39.173Z,32.60
2019-03-28T15:47:08.913Z,32.60
2019-03-28T15:49:40.799Z,32.60
2019-03-28T15:52:11.852Z,32.20
2019-03-28T15:54:44.019Z,31.80
2019-03-28T15:57:17.060Z,32.90
2019-03-28T15:59:48.238Z,33.70
2019-03-28T16:02:19.442Z,33.80
2019-03-28T16:04:50.581Z,34.10
2019-03-28T16:07:23.268Z,35.10
2019-03-28T16:09:54.377Z,35.10
2019-03-28T16:12:25.517Z,34.80
2019-03-28T16:14:56.834Z,34.60
2019-03-28T16:17:28.834Z,34.80
2019-03-28T16:20:00.321Z,35.30
2019-03-28T16:22:31.517Z,35.90
2019-03-28T16:25:02.846Z,34.90
2019-03-28T16:27:34.911Z,34.80
2019-03-28T16:30:07.861Z,35.50
2019-03-28T16:32:39.871Z,35.80
2019-03-28T16:35:11.254Z,36.40
2019-03-28T16:37:42.297Z,36.80
2019-03-28T16:40:14.254Z,36.50
2019-03-28T16:42:48.580Z,36.20
2019-03-28T16:45:19.754Z,37.00
2019-03-28T16:47:50.752Z,36.60
2019-03-28T16:50:21.785Z,37.30
2019-03-28T16:52:53.213Z,38.60
2019-03-28T16:55:26.443Z,39.30
2019-03-28T16:57:57.692Z,40.50
2019-03-28T17:00:39.402Z,40.90
2019-03-28T17:03:10.474Z,41.10
2019-03-28T17:05:42.597Z,41.60
2019-03-28T17:08:14.033Z,42.00
2019-03-28T17:10:49.789Z,42.60
2019-03-28T17:13:20.788Z,42.90
2019-03-28T17:15:52.015Z,43.10
2019-03-28T17:18:23.025Z,43.10
2019-03-28T17:20:54.013Z,43.80
2019-03-28T17:23:25.212Z,43.90
2019-03-28T17:25:56.185Z,44.00
2019-03-28T17:28:27.297Z,44.40
2019-03-28T17:30:58.757Z,44.80
2019-03-28T17:33:31.902Z,45.00
2019-03-28T17:36:03.224Z,45.30
2019-03-28T17:38:34.361Z,46.50
2019-03-28T17:41:06.659Z,46.40
2019-03-28T17:43:37.862Z,46.60
2019-03-28T17:46:12.166Z,46.80
2019-03-28T17:48:41.569Z,47.10
2019-03-28T17:51:12.578Z,47.10
2019-03-28T17:53:43.585Z,47.90
2019-03-28T17:56:14.697Z,48.10
2019-03-28T17:58:45.732Z,48.40
2019-03-28T18:01:16.878Z,48.70
2019-03-28T18:03:47.930Z,49.00
2019-03-28T18:06:18.948Z,49.50
2019-03-28T18:08:49.955Z,49.50
2019-03-28T18:11:21.719Z,49.50
2019-03-28T18:13:52.864Z,49.50
2019-03-28T18:16:23.876Z,49.90
2019-03-28T18:18:54.964Z,50.60
2019-03-28T18:21:26.125Z,51.10
2019-03-28T18:23:57.186Z,51.50
2019-03-28T18:26:28.238Z,51.60
2019-03-28T18:28:59.728Z,52.00
2019-03-28T18:31:30.865Z,52.00
2019-03-28T18:34:02.178Z,52.20
2019-03-28T18:36:34.031Z,52.40
2019-03-28T18:39:10.018Z,52.60
2019-03-28T18:41:44.097Z,52.70
2019-03-28T18:44:15.747Z,53.30
2019-03-28T18:46:47.235Z,53.40
2019-03-28T18:49:18.285Z,53.60
2019-03-28T18:51:49.293Z,53.60
2019-03-28T18:54:21.573Z,54.10
2019-03-28T18:56:52.964Z,54.10
2019-03-28T18:59:24.029Z,53.90
2019-03-28T19:01:55.022Z,54.40
2019-03-28T19:04:26.679Z,54.30
2019-03-28T19:06:57.998Z,54.60
2019-03-28T19:09:29.585Z,54.90
2019-03-28T19:12:00.849Z,54.80
2019-03-28T19:14:32.952Z,55.20
2019-03-28T19:17:04.043Z,55.20
2019-03-28T19:19:39.525Z,55.30
2019-03-28T19:22:07.865Z,55.50
2019-03-28T19:24:39.341Z,55.30
2019-03-28T19:27:10.380Z,55.10
2019-03-28T19:29:41.757Z,56.00
2019-03-28T19:32:12.790Z,56.20
2019-03-28T19:34:43.848Z,56.20
2019-03-28T19:37:14.840Z,56.20
2019-03-28T19:39:45.942Z,56.70
2019-03-28T19:42:17.789Z,56.70
2019-03-28T19:44:47.765Z,57.00
2019-03-28T19:47:17.423Z,57.30
2019-03-28T19:49:47.014Z,57.00
2019-03-28T19:52:16.873Z,57.30
2019-03-28T19:54:46.421Z,57.00
2019-03-28T19:57:16.072Z,56.90
2019-03-28T19:59:46.155Z,57.80
2019-03-28T20:02:15.718Z,57.40
2019-03-28T20:04:45.320Z,57.70
2019-03-28T20:07:21.378Z,57.80
2019-03-28T20:09:46.217Z,58.20
2019-03-28T20:12:15.798Z,58.30
2019-03-28T20:14:45.357Z,58.20
2019-03-28T20:17:14.934Z,58.40
2019-03-28T20:19:44.578Z,58.30
2019-03-28T20:22:14.097Z,58.10
2019-03-28T20:24:43.634Z,58.30
2019-03-28T20:27:13.347Z,58.60
2019-03-28T20:29:42.902Z,59.00
2019-03-28T20:32:12.918Z,58.80
2019-03-28T20:34:43.686Z,58.80
2019-03-28T20:37:13.482Z,59.00
2019-03-28T20:39:43.121Z,59.40
2019-03-28T20:42:12.671Z,59.80
2019-03-28T20:44:43.207Z,59.70
2019-03-28T20:47:13.389Z,59.80
2019-03-28T20:49:46.350Z,60.40
2019-03-28T20:52:14.462Z,60.40
2019-03-28T20:54:44.040Z,60.40
2019-03-28T20:57:13.802Z,61.10
2019-03-28T20:59:43.565Z,60.50
2019-03-28T21:02:13.569Z,60.50
2019-03-28T21:04:43.141Z,60.50
2019-03-28T21:07:13.784Z,60.50
2019-03-28T21:09:43.383Z,60.50
2019-03-28T21:12:13.029Z,60.90
2019-03-28T21:14:42.612Z,61.70
2019-03-28T21:17:13.213Z,61.00
2019-03-28T21:19:42.980Z,61.00
2019-03-28T21:22:12.662Z,61.30
2019-03-28T21:24:42.231Z,61.30
2019-03-28T21:27:11.797Z,62.00
2019-03-28T21:29:48.808Z,63.40
2019-03-28T21:32:13.250Z,62.80
2019-03-28T21:34:42.769Z,62.60
2019-03-28T21:37:12.365Z,62.60
2019-03-28T21:39:41.884Z,62.50
2019-03-28T21:42:12.081Z,62.60
2019-03-28T21:44:42.916Z,62.30
2019-03-28T21:47:12.628Z,62.50
2019-03-28T21:49:42.235Z,62.90
2019-03-28T21:52:11.967Z,62.90
2019-03-28T21:54:41.482Z,63.50
2019-03-28T21:57:14.305Z,63.40
2019-03-28T21:59:42.354Z,63.10
2019-03-28T22:02:12.263Z,62.80
2019-03-28T22:04:41.925Z,62.90
2019-03-28T22:07:12.126Z,62.70
2019-03-28T22:09:41.876Z,63.70
2019-03-28T22:12:11.452Z,63.50
2019-03-28T22:14:40.997Z,63.70
2019-03-28T22:17:10.526Z,63.60
2019-03-28T22:19:40.067Z,64.30
2019-03-28T22:22:09.784Z,65.20
2019-03-28T22:24:39.424Z,64.70
2019-03-28T22:27:09.029Z,64.50
2019-03-28T22:29:38.642Z,65.00
2019-03-28T22:32:11.487Z,64.90
2019-03-28T22:34:39.522Z,64.90
2019-03-28T22:37:09.052Z,65.40
2019-03-28T22:39:39.069Z,65.80
2019-03-28T22:42:08.960Z,65.60
2019-03-28T22:44:38.683Z,66.20
2019-03-28T22:47:08.229Z,66.40
2019-03-28T22:49:37.778Z,67.20
2019-03-28T22:52:07.308Z,67.40
2019-03-28T22:54:37.052Z,67.60
2019-03-28T22:57:06.656Z,67.50
2019-03-28T22:59:36.571Z,67.70
2019-03-28T23:02:06.235Z,67.60
2019-03-28T23:04:35.864Z,67.70
2019-03-28T23:07:10.912Z,67.70
2019-03-28T23:09:36.879Z,67.70
2019-03-28T23:12:06.486Z,68.40
2019-03-28T23:14:36.076Z,68.50
2019-03-28T23:17:05.732Z,68.70
2019-03-28T23:19:35.371Z,68.20
2019-03-28T23:22:05.066Z,68.00
2019-03-28T23:24:34.597Z,68.50
2019-03-28T23:27:04.151Z,68.70
2019-03-28T23:29:33.744Z,69.10
2019-03-28T23:32:03.389Z,68.80
2019-03-28T23:34:33.406Z,68.60
2019-03-28T23:37:02.917Z,68.60
2019-03-28T23:39:32.449Z,68.90
2019-03-28T23:42:02.039Z,68.90
2019-03-28T23:44:31.654Z,69.10
2019-03-28T23:47:02.161Z,69.40
2019-03-28T23:49:31.660Z,69.20
2019-03-28T23:52:01.169Z,69.20
2019-03-28T23:54:31.146Z,69.90
2019-03-28T23:57:00.685Z,70.40
2019-03-28T23:59:31.827Z,70.40
